sensor_id;sensor_type;location;lat;lon;timestamp;P1;durP1;ratioP1;P2;durP2;ratioP2
29500;SDS011;16450;50.288;10.966;2022-08-03T00:02:09;2.77;;;2.53;;
29500;SDS011;16450;50.288;10.966;2022-08-03T00:05:09;3.13;;;2.80;;
29500;SDS011;16450;50.288;10.966;2022-08-03T00:08:10;3.20;;;2.70;;
29500;SDS011;16450;50.288;10.966;2022-08-03T00:11:11;3.70;;;2.73;;
29500;SDS011;16450;50.288;10.966;2022-08-03T00:14:11;2.87;;;2.50;;
29500;SDS011;16450;50.288;10.966;2022-08-03T00:17:12;3.43;;;2.70;;
29500;SDS011;16450;50.288;10.966;2022-08-03T00:20:12;2.53;;;2.33;;
29500;SDS011;16450;50.288;10.966;2022-08-03T00:23:13;3.40;;;2.80;;
29500;SDS011;16450;50.288;10.966;2022-08-03T00:26:14;3.07;;;2.50;;
29500;SDS011;16450;50.288;10.966;2022-08-03T00:29:14;2.67;;;2.47;;
29500;SDS011;16450;50.288;10.966;2022-08-03T00:32:15;4.57;;;2.70;;
29500;SDS011;16450;50.288;10.966;2022-08-03T00:35:16;3.63;;;2.73;;
29500;SDS011;16450;50.288;10.966;2022-08-03T00:38:17;3.23;;;2.60;;
29500;SDS011;16450;50.288;10.966;2022-08-03T00:41:18;3.10;;;2.50;;
29500;SDS011;16450;50.288;10.966;2022-08-03T00:44:18;3.27;;;2.97;;
29500;SDS011;16450;50.288;10.966;2022-08-03T00:47:19;3.83;;;2.93;;
29500;SDS011;16450;50.288;10.966;2022-08-03T00:50:20;3.70;;;2.77;;
29500;SDS011;16450;50.288;10.966;2022-08-03T00:53:22;4.40;;;2.80;;
29500;SDS011;16450;50.288;10.966;2022-08-03T00:56:23;6.43;;;3.17;;
29500;SDS011;16450;50.288;10.966;2022-08-03T00:59:24;2.70;;;2.50;;
29500;SDS011;16450;50.288;10.966;2022-08-03T01:02:26;2.93;;;2.63;;
29500;SDS011;16450;50.288;10.966;2022-08-03T01:05:28;3.97;;;2.50;;
29500;SDS011;16450;50.288;10.966;2022-08-03T01:15:18;4.50;;;2.37;;
29500;SDS011;16450;50.288;10.966;2022-08-03T01:18:31;2.80;;;2.50;;
29500;SDS011;16450;50.288;10.966;2022-08-03T01:25:10;3.47;;;2.60;;
29500;SDS011;16450;50.288;10.966;2022-08-03T01:31:15;2.40;;;2.20;;
29500;SDS011;16450;50.288;10.966;2022-08-03T01:34:20;2.37;;;2.17;;
29500;SDS011;16450;50.288;10.966;2022-08-03T01:37:25;3.57;;;2.30;;
29500;SDS011;16450;50.288;10.966;2022-08-03T01:40:32;3.33;;;2.30;;
29500;SDS011;16450;50.288;10.966;2022-08-03T01:43:35;3.63;;;2.70;;
29500;SDS011;16450;50.288;10.966;2022-08-03T01:46:38;3.20;;;2.90;;
29500;SDS011;16450;50.288;10.966;2022-08-03T01:49:39;4.50;;;2.60;;
29500;SDS011;16450;50.288;10.966;2022-08-03T01:52:43;4.63;;;2.90;;
29500;SDS011;16450;50.288;10.966;2022-08-03T01:55:47;3.00;;;2.70;;
29500;SDS011;16450;50.288;10.966;2022-08-03T01:58:51;3.30;;;2.87;;
29500;SDS011;16450;50.288;10.966;2022-08-03T02:01:53;2.60;;;2.17;;
29500;SDS011;16450;50.288;10.966;2022-08-03T02:04:56;7.37;;;2.87;;
29500;SDS011;16450;50.288;10.966;2022-08-03T02:07:59;3.73;;;2.80;;
29500;SDS011;16450;50.288;10.966;2022-08-03T02:11:02;3.13;;;2.50;;
29500;SDS011;16450;50.288;10.966;2022-08-03T02:14:05;2.70;;;2.50;;
29500;SDS011;16450;50.288;10.966;2022-08-03T02:17:06;3.90;;;2.70;;
29500;SDS011;16450;50.288;10.966;2022-08-03T02:20:09;3.83;;;3.20;;
29500;SDS011;16450;50.288;10.966;2022-08-03T02:23:14;3.53;;;2.63;;
29500;SDS011;16450;50.288;10.966;2022-08-03T02:26:16;4.13;;;2.53;;
29500;SDS011;16450;50.288;10.966;2022-08-03T02:29:21;3.17;;;2.40;;
29500;SDS011;16450;50.288;10.966;2022-08-03T02:32:29;2.70;;;2.50;;
29500;SDS011;16450;50.288;10.966;2022-08-03T02:35:33;2.77;;;2.50;;
29500;SDS011;16450;50.288;10.966;2022-08-03T02:38:36;2.70;;;2.50;;
29500;SDS011;16450;50.288;10.966;2022-08-03T02:41:41;4.10;;;2.83;;
29500;SDS011;16450;50.288;10.966;2022-08-03T02:44:45;3.27;;;2.77;;
29500;SDS011;16450;50.288;10.966;2022-08-03T02:47:48;2.70;;;2.50;;
29500;SDS011;16450;50.288;10.966;2022-08-03T02:50:56;3.10;;;2.40;;
29500;SDS011;16450;50.288;10.966;2022-08-03T02:53:59;3.27;;;2.80;;
29500;SDS011;16450;50.288;10.966;2022-08-03T02:57:02;4.80;;;2.90;;
29500;SDS011;16450;50.288;10.966;2022-08-03T03:00:03;3.30;;;2.57;;
29500;SDS011;16450;50.288;10.966;2022-08-03T03:03:05;4.17;;;2.47;;
29500;SDS011;16450;50.288;10.966;2022-08-03T03:06:09;3.03;;;2.73;;
29500;SDS011;16450;50.288;10.966;2022-08-03T03:09:11;3.20;;;2.90;;
29500;SDS011;16450;50.288;10.966;2022-08-03T03:12:12;3.47;;;3.03;;
29500;SDS011;16450;50.288;10.966;2022-08-03T03:15:13;3.27;;;2.97;;
29500;SDS011;16450;50.288;10.966;2022-08-03T03:18:14;3.53;;;2.77;;
29500;SDS011;16450;50.288;10.966;2022-08-03T03:21:17;4.10;;;2.77;;
29500;SDS011;16450;50.288;10.966;2022-08-03T03:24:20;2.97;;;2.77;;
29500;SDS011;16450;50.288;10.966;2022-08-03T03:27:21;4.93;;;2.90;;
29500;SDS011;16450;50.288;10.966;2022-08-03T03:30:22;3.20;;;2.90;;
29500;SDS011;16450;50.288;10.966;2022-08-03T03:33:23;3.23;;;2.83;;
29500;SDS011;16450;50.288;10.966;2022-08-03T03:36:24;5.43;;;2.90;;
29500;SDS011;16450;50.288;10.966;2022-08-03T03:39:25;3.37;;;2.93;;
29500;SDS011;16450;50.288;10.966;2022-08-03T03:42:26;3.50;;;2.80;;
29500;SDS011;16450;50.288;10.966;2022-08-03T03:45:27;3.93;;;2.80;;
29500;SDS011;16450;50.288;10.966;2022-08-03T03:48:30;2.97;;;2.77;;
29500;SDS011;16450;50.288;10.966;2022-08-03T03:51:31;4.27;;;2.87;;
29500;SDS011;16450;50.288;10.966;2022-08-03T03:54:38;3.07;;;2.77;;
29500;SDS011;16450;50.288;10.966;2022-08-03T03:57:40;3.07;;;2.77;;
29500;SDS011;16450;50.288;10.966;2022-08-03T04:00:40;3.43;;;2.83;;
29500;SDS011;16450;50.288;10.966;2022-08-03T04:03:43;3.67;;;3.13;;
29500;SDS011;16450;50.288;10.966;2022-08-03T04:06:44;5.27;;;2.97;;
29500;SDS011;16450;50.288;10.966;2022-08-03T04:10:04;4.00;;;2.93;;
29500;SDS011;16450;50.288;10.966;2022-08-03T04:16:58;4.80;;;2.97;;
29500;SDS011;16450;50.288;10.966;2022-08-03T04:20:01;3.40;;;2.70;;
29500;SDS011;16450;50.288;10.966;2022-08-03T04:23:03;3.77;;;2.70;;
29500;SDS011;16450;50.288;10.966;2022-08-03T04:26:06;2.80;;;2.40;;
29500;SDS011;16450;50.288;10.966;2022-08-03T04:29:11;3.83;;;2.77;;
29500;SDS011;16450;50.288;10.966;2022-08-03T04:32:14;3.27;;;2.67;;
29500;SDS011;16450;50.288;10.966;2022-08-03T04:35:15;3.30;;;2.77;;
29500;SDS011;16450;50.288;10.966;2022-08-03T04:38:17;3.07;;;2.70;;
29500;SDS011;16450;50.288;10.966;2022-08-03T04:41:19;3.30;;;2.93;;
29500;SDS011;16450;50.288;10.966;2022-08-03T04:44:22;2.80;;;2.60;;
29500;SDS011;16450;50.288;10.966;2022-08-03T04:47:24;3.30;;;2.80;;
29500;SDS011;16450;50.288;10.966;2022-08-03T04:50:25;3.73;;;2.87;;
29500;SDS011;16450;50.288;10.966;2022-08-03T04:53:27;3.07;;;2.87;;
29500;SDS011;16450;50.288;10.966;2022-08-03T04:56:27;4.60;;;3.00;;
29500;SDS011;16450;50.288;10.966;2022-08-03T04:59:28;2.90;;;2.60;;
29500;SDS011;16450;50.288;10.966;2022-08-03T05:02:29;2.70;;;2.50;;
29500;SDS011;16450;50.288;10.966;2022-08-03T05:05:30;3.77;;;2.83;;
29500;SDS011;16450;50.288;10.966;2022-08-03T05:08:31;4.07;;;2.70;;
29500;SDS011;16450;50.288;10.966;2022-08-03T05:11:32;4.37;;;2.90;;
29500;SDS011;16450;50.288;10.966;2022-08-03T05:14:32;3.57;;;2.83;;
29500;SDS011;16450;50.288;10.966;2022-08-03T05:17:36;3.47;;;2.70;;
29500;SDS011;16450;50.288;10.966;2022-08-03T05:20:37;4.70;;;2.90;;
29500;SDS011;16450;50.288;10.966;2022-08-03T05:23:37;3.13;;;2.83;;
29500;SDS011;16450;50.288;10.966;2022-08-03T05:26:38;3.60;;;2.93;;
29500;SDS011;16450;50.288;10.966;2022-08-03T05:29:39;3.47;;;2.70;;
29500;SDS011;16450;50.288;10.966;2022-08-03T05:32:39;3.73;;;3.00;;
29500;SDS011;16450;50.288;10.966;2022-08-03T05:35:41;3.43;;;3.00;;
29500;SDS011;16450;50.288;10.966;2022-08-03T05:38:42;3.47;;;2.83;;
29500;SDS011;16450;50.288;10.966;2022-08-03T05:41:42;5.33;;;2.53;;
29500;SDS011;16450;50.288;10.966;2022-08-03T05:44:43;2.50;;;2.30;;
29500;SDS011;16450;50.288;10.966;2022-08-03T05:47:44;3.28;;;2.50;;
29500;SDS011;16450;50.288;10.966;2022-08-03T05:50:45;3.85;;;2.28;;
29500;SDS011;16450;50.288;10.966;2022-08-03T05:53:45;3.22;;;2.30;;
29500;SDS011;16450;50.288;10.966;2022-08-03T05:56:46;2.42;;;2.22;;
29500;SDS011;16450;50.288;10.966;2022-08-03T05:59:46;5.82;;;2.30;;
29500;SDS011;16450;50.288;10.966;2022-08-03T06:02:47;2.42;;;1.98;;
29500;SDS011;16450;50.288;10.966;2022-08-03T06:05:48;2.35;;;2.15;;
29500;SDS011;16450;50.288;10.966;2022-08-03T06:08:48;3.83;;;2.00;;
29500;SDS011;16450;50.288;10.966;2022-08-03T06:11:49;2.78;;;1.85;;
29500;SDS011;16450;50.288;10.966;2022-08-03T06:14:49;4.35;;;1.83;;
29500;SDS011;16450;50.288;10.966;2022-08-03T06:17:50;4.60;;;1.85;;
29500;SDS011;16450;50.288;10.966;2022-08-03T06:20:51;1.80;;;1.70;;
29500;SDS011;16450;50.288;10.966;2022-08-03T06:23:52;3.30;;;1.90;;
29500;SDS011;16450;50.288;10.966;2022-08-03T06:26:53;3.13;;;2.22;;
29500;SDS011;16450;50.288;10.966;2022-08-03T06:29:53;2.28;;;1.90;;
29500;SDS011;16450;50.288;10.966;2022-08-03T06:32:54;3.22;;;2.03;;
29500;SDS011;16450;50.288;10.966;2022-08-03T06:35:55;3.60;;;2.55;;
29500;SDS011;16450;50.288;10.966;2022-08-03T06:38:58;3.65;;;2.00;;
29500;SDS011;16450;50.288;10.966;2022-08-03T06:41:59;3.70;;;1.70;;
29500;SDS011;16450;50.288;10.966;2022-08-03T06:45:00;3.00;;;2.10;;
29500;SDS011;16450;50.288;10.966;2022-08-03T06:48:06;4.85;;;2.10;;
29500;SDS011;16450;50.288;10.966;2022-08-03T06:51:08;1.98;;;1.77;;
29500;SDS011;16450;50.288;10.966;2022-08-03T06:54:09;3.60;;;1.90;;
29500;SDS011;16450;50.288;10.966;2022-08-03T06:57:11;3.08;;;1.80;;
29500;SDS011;16450;50.288;10.966;2022-08-03T07:00:12;2.75;;;2.10;;
29500;SDS011;16450;50.288;10.966;2022-08-03T07:03:13;2.75;;;2.20;;
29500;SDS011;16450;50.288;10.966;2022-08-03T07:06:14;6.60;;;2.45;;
29500;SDS011;16450;50.288;10.966;2022-08-03T07:09:14;3.45;;;2.10;;
29500;SDS011;16450;50.288;10.966;2022-08-03T07:12:15;5.78;;;2.47;;
29500;SDS011;16450;50.288;10.966;2022-08-03T07:15:17;2.95;;;1.98;;
29500;SDS011;16450;50.288;10.966;2022-08-03T07:18:17;3.17;;;2.00;;
29500;SDS011;16450;50.288;10.966;2022-08-03T07:21:18;2.10;;;2.00;;
29500;SDS011;16450;50.288;10.966;2022-08-03T07:24:19;2.47;;;1.90;;
29500;SDS011;16450;50.288;10.966;2022-08-03T07:27:19;7.32;;;2.00;;
29500;SDS011;16450;50.288;10.966;2022-08-03T07:30:20;3.28;;;1.95;;
29500;SDS011;16450;50.288;10.966;2022-08-03T07:33:20;4.82;;;2.08;;
29500;SDS011;16450;50.288;10.966;2022-08-03T07:36:21;2.38;;;1.80;;
29500;SDS011;16450;50.288;10.966;2022-08-03T07:39:23;2.00;;;1.67;;
29500;SDS011;16450;50.288;10.966;2022-08-03T07:42:24;4.93;;;2.30;;
29500;SDS011;16450;50.288;10.966;2022-08-03T07:45:29;2.13;;;1.77;;
29500;SDS011;16450;50.288;10.966;2022-08-03T07:48:30;1.90;;;1.55;;
29500;SDS011;16450;50.288;10.966;2022-08-03T07:51:31;2.47;;;1.95;;
29500;SDS011;16450;50.288;10.966;2022-08-03T07:54:31;2.45;;;1.90;;
29500;SDS011;16450;50.288;10.966;2022-08-03T07:57:32;1.77;;;1.65;;
29500;SDS011;16450;50.288;10.966;2022-08-03T08:00:34;2.70;;;1.83;;
29500;SDS011;16450;50.288;10.966;2022-08-03T08:03:35;7.38;;;1.85;;
29500;SDS011;16450;50.288;10.966;2022-08-03T08:06:35;2.05;;;1.75;;
29500;SDS011;16450;50.288;10.966;2022-08-03T08:09:37;2.10;;;1.92;;
29500;SDS011;16450;50.288;10.966;2022-08-03T08:12:38;2.45;;;1.50;;
29500;SDS011;16450;50.288;10.966;2022-08-03T08:15:39;2.00;;;1.80;;
29500;SDS011;16450;50.288;10.966;2022-08-03T08:18:40;2.95;;;1.80;;
29500;SDS011;16450;50.288;10.966;2022-08-03T08:21:41;2.00;;;1.80;;
29500;SDS011;16450;50.288;10.966;2022-08-03T08:24:42;1.88;;;1.60;;
29500;SDS011;16450;50.288;10.966;2022-08-03T08:27:44;1.98;;;1.80;;
29500;SDS011;16450;50.288;10.966;2022-08-03T08:30:46;4.13;;;2.03;;
29500;SDS011;16450;50.288;10.966;2022-08-03T08:33:46;2.38;;;1.67;;
29500;SDS011;16450;50.288;10.966;2022-08-03T08:36:47;4.65;;;2.00;;
29500;SDS011;16450;50.288;10.966;2022-08-03T08:39:48;2.97;;;1.50;;
29500;SDS011;16450;50.288;10.966;2022-08-03T08:42:49;1.85;;;1.70;;
29500;SDS011;16450;50.288;10.966;2022-08-03T08:45:49;2.55;;;1.60;;
29500;SDS011;16450;50.288;10.966;2022-08-03T08:48:53;2.95;;;1.48;;
29500;SDS011;16450;50.288;10.966;2022-08-03T08:51:54;2.70;;;1.55;;
29500;SDS011;16450;50.288;10.966;2022-08-03T08:55:01;2.40;;;1.58;;
29500;SDS011;16450;50.288;10.966;2022-08-03T08:58:04;3.05;;;1.63;;
29500;SDS011;16450;50.288;10.966;2022-08-03T09:01:05;2.28;;;1.55;;
29500;SDS011;16450;50.288;10.966;2022-08-03T09:04:06;1.83;;;1.00;;
29500;SDS011;16450;50.288;10.966;2022-08-03T09:07:08;3.75;;;1.30;;
29500;SDS011;16450;50.288;10.966;2022-08-03T09:10:09;2.05;;;1.42;;
29500;SDS011;16450;50.288;10.966;2022-08-03T09:13:11;2.65;;;1.30;;
29500;SDS011;16450;50.288;10.966;2022-08-03T09:19:16;2.67;;;1.48;;
29500;SDS011;16450;50.288;10.966;2022-08-03T09:22:16;1.38;;;1.27;;
29500;SDS011;16450;50.288;10.966;2022-08-03T09:25:17;3.33;;;1.63;;
29500;SDS011;16450;50.288;10.966;2022-08-03T09:28:18;1.80;;;1.58;;
29500;SDS011;16450;50.288;10.966;2022-08-03T09:31:18;1.98;;;1.23;;
29500;SDS011;16450;50.288;10.966;2022-08-03T09:34:22;2.15;;;1.25;;
29500;SDS011;16450;50.288;10.966;2022-08-03T09:37:27;1.73;;;1.45;;
29500;SDS011;16450;50.288;10.966;2022-08-03T09:40:33;1.58;;;1.35;;
29500;SDS011;16450;50.288;10.966;2022-08-03T09:43:44;1.35;;;1.25;;
29500;SDS011;16450;50.288;10.966;2022-08-03T09:46:53;2.63;;;1.40;;
29500;SDS011;16450;50.288;10.966;2022-08-03T09:49:56;1.48;;;1.38;;
29500;SDS011;16450;50.288;10.966;2022-08-03T09:53:01;3.45;;;1.20;;
29500;SDS011;16450;50.288;10.966;2022-08-03T09:56:03;2.95;;;1.58;;
29500;SDS011;16450;50.288;10.966;2022-08-03T09:59:03;3.90;;;1.40;;
29500;SDS011;16450;50.288;10.966;2022-08-03T10:02:04;3.42;;;1.40;;
29500;SDS011;16450;50.288;10.966;2022-08-03T10:05:19;2.08;;;1.25;;
29500;SDS011;16450;50.288;10.966;2022-08-03T10:08:32;1.23;;;1.20;;
29500;SDS011;16450;50.288;10.966;2022-08-03T10:11:32;1.42;;;1.30;;
29500;SDS011;16450;50.288;10.966;2022-08-03T10:14:37;3.53;;;1.30;;
29500;SDS011;16450;50.288;10.966;2022-08-03T10:17:38;3.13;;;1.40;;
29500;SDS011;16450;50.288;10.966;2022-08-03T10:20:43;2.15;;;1.40;;
29500;SDS011;16450;50.288;10.966;2022-08-03T10:23:48;2.30;;;1.30;;
29500;SDS011;16450;50.288;10.966;2022-08-03T10:26:52;1.65;;;1.30;;
29500;SDS011;16450;50.288;10.966;2022-08-03T10:30:04;4.03;;;1.40;;
29500;SDS011;16450;50.288;10.966;2022-08-03T10:33:12;2.65;;;1.60;;
29500;SDS011;16450;50.288;10.966;2022-08-03T10:36:16;2.35;;;1.67;;
29500;SDS011;16450;50.288;10.966;2022-08-03T10:39:18;1.88;;;1.50;;
29500;SDS011;16450;50.288;10.966;2022-08-03T10:42:22;2.38;;;1.30;;
29500;SDS011;16450;50.288;10.966;2022-08-03T10:45:25;1.65;;;1.27;;
29500;SDS011;16450;50.288;10.966;2022-08-03T10:48:26;3.17;;;1.40;;
29500;SDS011;16450;50.288;10.966;2022-08-03T10:51:27;1.60;;;1.50;;
29500;SDS011;16450;50.288;10.966;2022-08-03T10:58:00;4.53;;;1.30;;
29500;SDS011;16450;50.288;10.966;2022-08-03T11:01:02;1.42;;;1.30;;
29500;SDS011;16450;50.288;10.966;2022-08-03T11:07:18;1.80;;;1.40;;
29500;SDS011;16450;50.288;10.966;2022-08-03T11:10:29;2.92;;;1.60;;
29500;SDS011;16450;50.288;10.966;2022-08-03T11:13:30;1.73;;;1.27;;
29500;SDS011;16450;50.288;10.966;2022-08-03T11:16:36;1.30;;;1.20;;
29500;SDS011;16450;50.288;10.966;2022-08-03T11:19:43;2.08;;;1.33;;
29500;SDS011;16450;50.288;10.966;2022-08-03T11:22:49;1.77;;;1.30;;
29500;SDS011;16450;50.288;10.966;2022-08-03T11:29:32;1.45;;;1.35;;
29500;SDS011;16450;50.288;10.966;2022-08-03T11:35:56;2.97;;;1.33;;
29500;SDS011;16450;50.288;10.966;2022-08-03T11:39:11;3.13;;;1.30;;
29500;SDS011;16450;50.288;10.966;2022-08-03T11:45:26;1.83;;;1.50;;
29500;SDS011;16450;50.288;10.966;2022-08-03T11:48:33;2.72;;;1.40;;
29500;SDS011;16450;50.288;10.966;2022-08-03T11:51:36;1.60;;;1.50;;
29500;SDS011;16450;50.288;10.966;2022-08-03T11:54:38;1.17;;;1.08;;
29500;SDS011;16450;50.288;10.966;2022-08-03T11:57:39;1.20;;;1.10;;
29500;SDS011;16450;50.288;10.966;2022-08-03T12:00:40;1.80;;;1.30;;
29500;SDS011;16450;50.288;10.966;2022-08-03T12:03:41;1.33;;;1.23;;
29500;SDS011;16450;50.288;10.966;2022-08-03T12:06:56;1.85;;;1.23;;
29500;SDS011;16450;50.288;10.966;2022-08-03T12:13:09;1.98;;;1.40;;
29500;SDS011;16450;50.288;10.966;2022-08-03T12:16:11;3.67;;;1.60;;
29500;SDS011;16450;50.288;10.966;2022-08-03T12:19:20;1.23;;;1.13;;
29500;SDS011;16450;50.288;10.966;2022-08-03T12:22:31;2.78;;;1.40;;
29500;SDS011;16450;50.288;10.966;2022-08-03T12:25:33;4.22;;;1.52;;
29500;SDS011;16450;50.288;10.966;2022-08-03T12:28:35;2.92;;;1.42;;
29500;SDS011;16450;50.288;10.966;2022-08-03T12:31:36;1.27;;;1.05;;
29500;SDS011;16450;50.288;10.966;2022-08-03T12:34:46;6.55;;;1.38;;
29500;SDS011;16450;50.288;10.966;2022-08-03T12:37:48;1.95;;;1.40;;
29500;SDS011;16450;50.288;10.966;2022-08-03T12:40:56;2.28;;;1.30;;
29500;SDS011;16450;50.288;10.966;2022-08-03T12:44:01;2.08;;;1.55;;
29500;SDS011;16450;50.288;10.966;2022-08-03T12:47:03;1.50;;;1.40;;
29500;SDS011;16450;50.288;10.966;2022-08-03T12:50:05;3.28;;;1.50;;
29500;SDS011;16450;50.288;10.966;2022-08-03T12:53:07;1.95;;;1.55;;
29500;SDS011;16450;50.288;10.966;2022-08-03T12:56:09;2.65;;;1.40;;
29500;SDS011;16450;50.288;10.966;2022-08-03T12:59:22;1.77;;;1.25;;
29500;SDS011;16450;50.288;10.966;2022-08-03T13:02:24;1.60;;;1.40;;
29500;SDS011;16450;50.288;10.966;2022-08-03T13:05:26;1.60;;;1.30;;
29500;SDS011;16450;50.288;10.966;2022-08-03T13:08:26;2.03;;;1.20;;
29500;SDS011;16450;50.288;10.966;2022-08-03T13:11:27;3.72;;;1.38;;
29500;SDS011;16450;50.288;10.966;2022-08-03T13:14:28;1.40;;;1.30;;
29500;SDS011;16450;50.288;10.966;2022-08-03T13:17:28;2.25;;;1.42;;
29500;SDS011;16450;50.288;10.966;2022-08-03T13:20:29;2.03;;;1.30;;
29500;SDS011;16450;50.288;10.966;2022-08-03T13:23:29;1.45;;;1.35;;
29500;SDS011;16450;50.288;10.966;2022-08-03T13:26:30;4.28;;;1.58;;
29500;SDS011;16450;50.288;10.966;2022-08-03T13:29:31;2.10;;;1.40;;
29500;SDS011;16450;50.288;10.966;2022-08-03T13:32:32;1.45;;;1.35;;
29500;SDS011;16450;50.288;10.966;2022-08-03T13:35:33;1.30;;;1.20;;
29500;SDS011;16450;50.288;10.966;2022-08-03T13:38:34;2.05;;;1.52;;
29500;SDS011;16450;50.288;10.966;2022-08-03T13:41:35;3.00;;;1.50;;
29500;SDS011;16450;50.288;10.966;2022-08-03T13:44:35;2.80;;;1.60;;
29500;SDS011;16450;50.288;10.966;2022-08-03T13:47:36;1.90;;;1.75;;
29500;SDS011;16450;50.288;10.966;2022-08-03T13:50:36;1.65;;;1.50;;
29500;SDS011;16450;50.288;10.966;2022-08-03T13:53:37;2.28;;;1.55;;
29500;SDS011;16450;50.288;10.966;2022-08-03T13:56:38;2.45;;;1.55;;
29500;SDS011;16450;50.288;10.966;2022-08-03T13:59:38;1.50;;;1.40;;
29500;SDS011;16450;50.288;10.966;2022-08-03T14:02:39;2.33;;;1.50;;
29500;SDS011;16450;50.288;10.966;2022-08-03T14:05:40;1.35;;;1.25;;
29500;SDS011;16450;50.288;10.966;2022-08-03T14:08:42;3.33;;;1.40;;
29500;SDS011;16450;50.288;10.966;2022-08-03T14:11:43;2.70;;;1.45;;
29500;SDS011;16450;50.288;10.966;2022-08-03T14:14:44;1.77;;;1.17;;
29500;SDS011;16450;50.288;10.966;2022-08-03T14:17:45;1.40;;;1.30;;
29500;SDS011;16450;50.288;10.966;2022-08-03T14:20:45;2.95;;;1.48;;
29500;SDS011;16450;50.288;10.966;2022-08-03T14:23:46;2.13;;;1.50;;
29500;SDS011;16450;50.288;10.966;2022-08-03T14:26:47;2.25;;;1.65;;
29500;SDS011;16450;50.288;10.966;2022-08-03T14:29:48;1.73;;;1.33;;
29500;SDS011;16450;50.288;10.966;2022-08-03T14:32:48;1.33;;;1.20;;
29500;SDS011;16450;50.288;10.966;2022-08-03T14:35:49;2.53;;;1.40;;
29500;SDS011;16450;50.288;10.966;2022-08-03T14:38:51;1.45;;;1.35;;
29500;SDS011;16450;50.288;10.966;2022-08-03T14:41:51;1.40;;;1.30;;
29500;SDS011;16450;50.288;10.966;2022-08-03T14:44:52;1.58;;;1.40;;
29500;SDS011;16450;50.288;10.966;2022-08-03T14:47:53;2.08;;;1.60;;
29500;SDS011;16450;50.288;10.966;2022-08-03T14:50:53;2.83;;;1.50;;
29500;SDS011;16450;50.288;10.966;2022-08-03T14:53:55;1.55;;;1.30;;
29500;SDS011;16450;50.288;10.966;2022-08-03T14:56:56;1.90;;;1.50;;
29500;SDS011;16450;50.288;10.966;2022-08-03T14:59:57;2.45;;;1.40;;
29500;SDS011;16450;50.288;10.966;2022-08-03T15:02:58;3.00;;;1.60;;
29500;SDS011;16450;50.288;10.966;2022-08-03T15:05:59;2.05;;;1.40;;
29500;SDS011;16450;50.288;10.966;2022-08-03T15:09:00;1.77;;;1.30;;
29500;SDS011;16450;50.288;10.966;2022-08-03T15:12:01;1.50;;;1.40;;
29500;SDS011;16450;50.288;10.966;2022-08-03T15:15:02;2.60;;;1.55;;
29500;SDS011;16450;50.288;10.966;2022-08-03T15:18:03;2.15;;;1.30;;
29500;SDS011;16450;50.288;10.966;2022-08-03T15:21:04;2.28;;;1.20;;
29500;SDS011;16450;50.288;10.966;2022-08-03T15:24:05;1.92;;;1.45;;
29500;SDS011;16450;50.288;10.966;2022-08-03T15:27:06;2.20;;;1.48;;
29500;SDS011;16450;50.288;10.966;2022-08-03T15:30:07;2.33;;;1.60;;
29500;SDS011;16450;50.288;10.966;2022-08-03T15:33:09;2.08;;;1.60;;
29500;SDS011;16450;50.288;10.966;2022-08-03T15:36:09;1.60;;;1.50;;
29500;SDS011;16450;50.288;10.966;2022-08-03T15:39:10;2.28;;;1.30;;
29500;SDS011;16450;50.288;10.966;2022-08-03T15:42:10;2.67;;;1.40;;
29500;SDS011;16450;50.288;10.966;2022-08-03T15:45:11;5.13;;;1.50;;
29500;SDS011;16450;50.288;10.966;2022-08-03T15:48:12;1.83;;;1.50;;
29500;SDS011;16450;50.288;10.966;2022-08-03T15:51:12;1.70;;;1.35;;
29500;SDS011;16450;50.288;10.966;2022-08-03T15:54:13;1.67;;;1.58;;
29500;SDS011;16450;50.288;10.966;2022-08-03T15:57:13;1.75;;;1.52;;
29500;SDS011;16450;50.288;10.966;2022-08-03T16:00:14;2.55;;;1.60;;
29500;SDS011;16450;50.288;10.966;2022-08-03T16:03:15;1.50;;;1.40;;
29500;SDS011;16450;50.288;10.966;2022-08-03T16:06:15;1.65;;;1.40;;
29500;SDS011;16450;50.288;10.966;2022-08-03T16:09:16;2.05;;;1.63;;
29500;SDS011;16450;50.288;10.966;2022-08-03T16:12:17;1.70;;;1.60;;
29500;SDS011;16450;50.288;10.966;2022-08-03T16:15:17;1.42;;;1.33;;
29500;SDS011;16450;50.288;10.966;2022-08-03T16:18:18;2.05;;;1.60;;
29500;SDS011;16450;50.288;10.966;2022-08-03T16:21:19;1.42;;;1.33;;
29500;SDS011;16450;50.288;10.966;2022-08-03T16:24:19;1.50;;;1.33;;
29500;SDS011;16450;50.288;10.966;2022-08-03T16:27:20;2.38;;;1.50;;
29500;SDS011;16450;50.288;10.966;2022-08-03T16:30:21;1.70;;;1.40;;
29500;SDS011;16450;50.288;10.966;2022-08-03T16:33:22;1.88;;;1.50;;
29500;SDS011;16450;50.288;10.966;2022-08-03T16:36:23;2.35;;;1.50;;
29500;SDS011;16450;50.288;10.966;2022-08-03T16:39:23;1.65;;;1.55;;
29500;SDS011;16450;50.288;10.966;2022-08-03T16:42:24;1.65;;;1.50;;
29500;SDS011;16450;50.288;10.966;2022-08-03T16:45:24;3.33;;;1.50;;
29500;SDS011;16450;50.288;10.966;2022-08-03T16:48:25;3.80;;;1.73;;
29500;SDS011;16450;50.288;10.966;2022-08-03T16:51:26;2.13;;;1.40;;
29500;SDS011;16450;50.288;10.966;2022-08-03T16:54:26;2.22;;;1.50;;
29500;SDS011;16450;50.288;10.966;2022-08-03T16:57:27;3.75;;;1.55;;
29500;SDS011;16450;50.288;10.966;2022-08-03T17:00:29;2.03;;;1.50;;
29500;SDS011;16450;50.288;10.966;2022-08-03T17:03:30;2.25;;;1.33;;
29500;SDS011;16450;50.288;10.966;2022-08-03T17:06:35;2.10;;;1.40;;
29500;SDS011;16450;50.288;10.966;2022-08-03T17:09:37;2.25;;;1.50;;
29500;SDS011;16450;50.288;10.966;2022-08-03T17:12:37;1.80;;;1.50;;
29500;SDS011;16450;50.288;10.966;2022-08-03T17:15:41;1.50;;;1.40;;
29500;SDS011;16450;50.288;10.966;2022-08-03T17:18:50;3.58;;;1.48;;
29500;SDS011;16450;50.288;10.966;2022-08-03T17:21:59;3.78;;;1.70;;
29500;SDS011;16450;50.288;10.966;2022-08-03T17:25:05;1.50;;;1.33;;
29500;SDS011;16450;50.288;10.966;2022-08-03T17:28:08;2.03;;;1.50;;
29500;SDS011;16450;50.288;10.966;2022-08-03T17:31:09;1.75;;;1.50;;
29500;SDS011;16450;50.288;10.966;2022-08-03T17:34:17;2.20;;;1.60;;
29500;SDS011;16450;50.288;10.966;2022-08-03T17:37:19;2.90;;;1.67;;
29500;SDS011;16450;50.288;10.966;2022-08-03T17:40:20;1.50;;;1.40;;
29500;SDS011;16450;50.288;10.966;2022-08-03T17:43:21;2.33;;;1.70;;
29500;SDS011;16450;50.288;10.966;2022-08-03T17:46:23;2.78;;;1.98;;
29500;SDS011;16450;50.288;10.966;2022-08-03T17:49:25;1.73;;;1.63;;
29500;SDS011;16450;50.288;10.966;2022-08-03T17:55:40;2.10;;;1.90;;
29500;SDS011;16450;50.288;10.966;2022-08-03T17:58:50;1.60;;;1.50;;
29500;SDS011;16450;50.288;10.966;2022-08-03T18:02:15;2.75;;;1.40;;
29500;SDS011;16450;50.288;10.966;2022-08-03T18:05:42;1.60;;;1.50;;
29500;SDS011;16450;50.288;10.966;2022-08-03T18:08:49;2.45;;;1.75;;
29500;SDS011;16450;50.288;10.966;2022-08-03T18:11:54;2.35;;;2.15;;
29500;SDS011;16450;50.288;10.966;2022-08-03T18:14:58;2.40;;;2.10;;
29500;SDS011;16450;50.288;10.966;2022-08-03T18:18:04;2.20;;;2.00;;
29500;SDS011;16450;50.288;10.966;2022-08-03T18:21:07;2.38;;;1.85;;
29500;SDS011;16450;50.288;10.966;2022-08-03T18:24:08;3.92;;;1.90;;
29500;SDS011;16450;50.288;10.966;2022-08-03T18:27:10;1.92;;;1.75;;
29500;SDS011;16450;50.288;10.966;2022-08-03T18:30:14;3.90;;;1.65;;
29500;SDS011;16450;50.288;10.966;2022-08-03T18:33:15;2.10;;;1.90;;
29500;SDS011;16450;50.288;10.966;2022-08-03T18:36:18;4.47;;;1.90;;
29500;SDS011;16450;50.288;10.966;2022-08-03T18:39:19;3.75;;;2.17;;
29500;SDS011;16450;50.288;10.966;2022-08-03T18:42:20;2.20;;;2.00;;
29500;SDS011;16450;50.288;10.966;2022-08-03T18:45:20;3.22;;;2.08;;